Time;durP1;ratioP1;P1;durP2;ratioP2;P2;SDS_P1;SDS_P2;PMS_P1;PMS_P2;Temp;Humidity;BMP_temperature;BMP_pressure;BME280_temperature;BME280_humidity;BME280_pressure;Samples;Min_cycle;Max_cycle;Signal;HPM_P1;HPM_P2
2020/12/10 00:00:27;;;;;;;27.13;15.88;;;1.50;99.90;;;;;;5109668;28;20046;-65
2020/12/10 00:02:53;;;;;;;31.73;16.58;;;1.50;99.90;;;;;;5109128;28;20414;-65
2020/12/10 00:05:20;;;;;;;31.50;17.35;;;1.50;99.90;;;;;;5109765;28;20039;-65
2020/12/10 00:07:46;;;;;;;31.20;15.77;;;1.50;99.90;;;;;;5109702;28;20443;-65
2020/12/10 00:10:13;;;;;;;29.48;15.88;;;1.50;99.90;;;;;;5109699;28;20043;-65
2020/12/10 00:12:44;;;;;;;32.17;17.13;;;1.50;99.90;;;;;;5108307;28;20047;-65
2020/12/10 00:15:12;;;;;;;32.38;15.77;;;1.60;99.90;;;;;;5109561;28;20062;-66
2020/12/10 00:17:38;;;;;;;31.40;15.98;;;1.60;99.90;;;;;;5091420;28;20047;-65
2020/12/10 00:20:07;;;;;;;28.38;14.80;;;1.60;99.90;;;;;;5090913;28;20063;-64
2020/12/10 00:22:34;;;;;;;32.05;16.40;;;1.60;99.90;;;;;;5109128;28;20064;-66
2020/12/10 00:25:03;;;;;;;30.13;16.23;;;1.70;99.90;;;;;;5109298;28;20417;-64
2020/12/10 00:27:29;;;;;;;27.80;15.10;;;1.70;99.90;;;;;;5108541;28;20050;-65
2020/12/10 00:29:59;;;;;;;31.33;16.05;;;1.60;99.90;;;;;;5109639;28;20112;-65
2020/12/10 00:32:26;;;;;;;29.30;15.20;;;1.60;99.90;;;;;;5108877;28;20053;-65
2020/12/10 00:34:55;;;;;;;29.30;16.05;;;1.60;99.90;;;;;;5108948;28;20048;-65
2020/12/10 00:37:29;;;;;;;29.75;15.80;;;1.60;99.90;;;;;;5108736;28;20040;-65
2020/12/10 00:39:56;;;;;;;28.90;15.70;;;1.60;99.90;;;;;;5109156;28;20511;-66
2020/12/10 00:42:23;;;;;;;31.30;16.13;;;1.60;99.90;;;;;;5109374;28;20405;-66
2020/12/10 00:44:49;;;;;;;30.30;15.70;;;1.60;99.90;;;;;;5113347;28;20493;-65
2020/12/10 00:47:17;;;;;;;30.55;16.42;;;1.60;99.90;;;;;;5113391;28;20047;-65
2020/12/10 00:49:44;;;;;;;33.85;17.05;;;1.60;99.90;;;;;;5112867;28;20057;-68
2020/12/10 00:52:11;;;;;;;33.10;17.00;;;1.70;99.90;;;;;;5112356;28;20051;-65
2020/12/10 00:54:39;;;;;;;31.90;16.23;;;1.60;99.90;;;;;;5112950;28;20043;-65
2020/12/10 00:57:12;;;;;;;33.58;16.85;;;1.60;99.90;;;;;;5113106;28;20393;-65
2020/12/10 00:59:39;;;;;;;31.23;16.73;;;1.60;99.90;;;;;;5113267;28;20043;-65
2020/12/10 01:02:07;;;;;;;34.25;17.02;;;1.60;99.90;;;;;;5112003;28;20357;-64
2020/12/10 01:04:34;;;;;;;35.53;18.48;;;1.60;99.90;;;;;;5111614;28;20048;-65
2020/12/10 01:07:01;;;;;;;40.22;18.80;;;1.60;99.90;;;;;;5112892;28;20063;-67
2020/12/10 01:09:27;;;;;;;40.15;18.25;;;1.60;99.90;;;;;;5112902;28;20074;-64
2020/12/10 01:11:54;;;;;;;33.65;17.42;;;1.60;99.90;;;;;;5111491;28;20105;-65
2020/12/10 01:14:21;;;;;;;31.67;17.40;;;1.60;99.90;;;;;;5113042;28;20051;-65
2020/12/10 01:16:48;;;;;;;32.92;16.92;;;1.60;99.90;;;;;;5112731;28;20465;-65
2020/12/10 01:19:15;;;;;;;38.72;19.95;;;1.60;99.90;;;;;;5112458;28;20487;-66
2020/12/10 01:21:41;;;;;;;40.83;19.85;;;1.50;99.90;;;;;;5112217;28;20043;-64
2020/12/10 01:24:09;;;;;;;39.47;19.98;;;1.50;99.90;;;;;;5112753;28;20043;-65
2020/12/10 01:26:36;;;;;;;40.40;19.58;;;1.50;99.90;;;;;;5111952;28;20064;-65
2020/12/10 01:29:03;;;;;;;39.78;19.45;;;1.50;99.90;;;;;;5112663;28;20044;-64
2020/12/10 01:31:30;;;;;;;38.03;18.67;;;1.50;99.90;;;;;;5109667;28;20052;-64
2020/12/10 01:33:58;;;;;;;41.70;20.08;;;1.50;99.90;;;;;;5111459;28;20543;-64
2020/12/10 01:36:27;;;;;;;37.38;19.33;;;1.60;99.90;;;;;;5111720;28;20059;-64
2020/12/10 01:38:54;;;;;;;43.00;20.35;;;1.60;99.90;;;;;;5113301;28;20398;-66
2020/12/10 01:41:27;;;;;;;42.55;19.77;;;1.60;99.90;;;;;;5111482;28;20042;-65
2020/12/10 01:44:04;;;;;;;45.13;20.38;;;1.50;99.90;;;;;;5112820;28;20043;-65
2020/12/10 01:46:32;;;;;;;43.25;20.65;;;1.50;99.90;;;;;;5112319;28;20427;-65
2020/12/10 01:49:03;;;;;;;41.63;20.52;;;1.50;99.90;;;;;;5112407;28;20611;-65
2020/12/10 01:51:31;;;;;;;39.90;18.75;;;1.50;99.90;;;;;;5111612;28;20072;-65
2020/12/10 01:53:59;;;;;;;40.75;19.05;;;1.60;99.90;;;;;;5112073;28;20462;-65
2020/12/10 01:56:25;;;;;;;39.33;19.13;;;1.60;99.90;;;;;;5110829;28;20043;-65
2020/12/10 01:58:53;;;;;;;44.88;20.33;;;1.60;99.90;;;;;;5111470;28;20519;-66
2020/12/10 02:01:20;;;;;;;46.20;20.10;;;1.50;99.90;;;;;;5110579;28;20438;-65
2020/12/10 02:03:47;;;;;;;47.50;21.77;;;1.50;99.90;;;;;;5111456;28;20060;-66
2020/12/10 02:06:13;;;;;;;44.75;21.77;;;1.50;99.90;;;;;;5103366;28;20044;-67
2020/12/10 02:08:41;;;;;;;42.35;20.92;;;1.50;99.90;;;;;;5111717;28;20378;-65
2020/12/10 02:11:09;;;;;;;49.35;22.17;;;1.50;99.90;;;;;;5111417;28;20486;-65
2020/12/10 02:13:36;;;;;;;45.13;22.33;;;1.50;99.90;;;;;;5111762;28;20048;-64
2020/12/10 02:16:04;;;;;;;46.05;22.17;;;1.50;99.90;;;;;;5111361;28;20504;-65
2020/12/10 02:18:30;;;;;;;47.75;21.25;;;1.50;99.90;;;;;;5111406;28;20126;-65
2020/12/10 02:20:57;;;;;;;49.55;21.65;;;1.50;99.90;;;;;;5110907;28;20055;-66
2020/12/10 02:23:24;;;;;;;48.38;22.67;;;1.50;99.90;;;;;;5111624;28;20054;-64
2020/12/10 02:25:50;;;;;;;50.75;22.20;;;1.40;99.90;;;;;;5109709;28;20045;-68
2020/12/10 02:28:18;;;;;;;47.80;22.20;;;1.40;99.90;;;;;;5111825;28;20145;-67
2020/12/10 02:30:46;;;;;;;50.97;23.00;;;1.40;99.90;;;;;;5092718;28;20462;-64
2020/12/10 02:33:13;;;;;;;47.13;21.48;;;1.40;99.90;;;;;;5100668;28;20074;-65
2020/12/10 02:35:41;;;;;;;53.00;22.92;;;1.40;99.90;;;;;;5110486;28;20048;-64
2020/12/10 02:38:10;;;;;;;56.17;25.33;;;1.30;99.90;;;;;;5111061;28;20043;-66
2020/12/10 02:40:43;;;;;;;49.63;22.02;;;1.40;99.90;;;;;;5111146;28;20043;-64
2020/12/10 02:43:10;;;;;;;49.05;21.75;;;1.30;99.90;;;;;;5111032;28;20051;-65
2020/12/10 02:45:38;;;;;;;46.53;21.90;;;1.30;99.90;;;;;;5111372;28;20126;-65
2020/12/10 02:48:05;;;;;;;48.55;21.67;;;1.40;99.90;;;;;;5110913;28;20039;-64
2020/12/10 02:50:32;;;;;;;50.90;23.15;;;1.40;99.90;;;;;;5111321;28;20057;-66
2020/12/10 02:52:59;;;;;;;51.70;23.67;;;1.50;99.90;;;;;;5110715;28;20052;-64
2020/12/10 02:55:25;;;;;;;49.17;23.20;;;1.50;99.90;;;;;;5109983;28;20039;-64
2020/12/10 02:57:51;;;;;;;50.65;23.90;;;1.50;99.90;;;;;;5110043;28;20047;-65
2020/12/10 03:00:18;;;;;;;50.47;23.50;;;1.40;99.90;;;;;;5111033;28;20066;-68
2020/12/10 03:02:44;;;;;;;54.30;24.02;;;1.40;99.90;;;;;;5110843;28;20359;-65
2020/12/10 03:05:11;;;;;;;49.05;22.58;;;1.40;99.90;;;;;;5092793;28;20044;-64
2020/12/10 03:07:37;;;;;;;52.53;24.20;;;1.40;99.90;;;;;;5109844;28;20047;-65
2020/12/10 03:10:04;;;;;;;52.53;23.65;;;1.40;99.90;;;;;;5110632;28;20051;-65
2020/12/10 03:12:31;;;;;;;52.92;22.52;;;1.50;99.90;;;;;;5110032;28;20509;-64
2020/12/10 03:14:58;;;;;;;48.22;22.30;;;1.50;99.90;;;;;;5111173;28;20047;-65
2020/12/10 03:17:27;;;;;;;51.17;23.58;;;1.60;99.90;;;;;;5106091;28;20043;-65
2020/12/10 03:19:54;;;;;;;50.38;22.77;;;1.60;99.90;;;;;;5110549;28;20051;-63
2020/12/10 03:22:21;;;;;;;53.70;22.85;;;1.60;99.90;;;;;;5108967;28;20048;-63
2020/12/10 03:24:48;;;;;;;48.95;21.65;;;1.60;99.90;;;;;;5110478;28;20043;-64
2020/12/10 03:27:15;;;;;;;53.13;23.58;;;1.60;99.90;;;;;;5109714;28;20054;-64
2020/12/10 03:29:41;;;;;;;49.30;22.00;;;1.60;99.90;;;;;;5110594;28;20051;-64
2020/12/10 03:32:08;;;;;;;51.00;23.20;;;1.60;99.90;;;;;;5107955;28;20051;-64
2020/12/10 03:34:34;;;;;;;49.40;22.35;;;1.60;99.90;;;;;;5110992;28;20066;-64
2020/12/10 03:37:02;;;;;;;49.75;23.13;;;1.60;99.90;;;;;;5108695;28;20053;-63
2020/12/10 03:39:30;;;;;;;48.83;22.67;;;1.60;99.90;;;;;;5110226;28;20067;-64
2020/12/10 03:41:59;;;;;;;53.10;24.27;;;1.60;99.90;;;;;;5109830;28;20055;-65
2020/12/10 03:44:26;;;;;;;50.22;23.00;;;1.70;99.90;;;;;;5092341;28;20055;-63
2020/12/10 03:46:53;;;;;;;57.15;24.73;;;1.70;99.90;;;;;;5090481;28;20055;-64
2020/12/10 03:49:20;;;;;;;52.08;22.40;;;1.70;99.90;;;;;;5107459;28;20631;-64
2020/12/10 03:51:47;;;;;;;51.90;23.42;;;1.60;99.90;;;;;;5108866;28;20108;-64
2020/12/10 03:54:16;;;;;;;48.92;22.73;;;1.60;99.90;;;;;;5109962;28;20067;-65
2020/12/10 03:56:43;;;;;;;47.42;21.42;;;1.70;99.90;;;;;;5108749;28;20052;-63
2020/12/10 03:59:09;;;;;;;55.08;23.83;;;1.70;99.90;;;;;;5109719;28;20047;-66
2020/12/10 04:01:36;;;;;;;56.03;24.42;;;1.70;99.90;;;;;;5109860;28;20406;-64
2020/12/10 04:04:03;;;;;;;51.13;22.35;;;1.70;99.90;;;;;;5110173;28;20126;-64
2020/12/10 04:06:30;;;;;;;53.28;23.70;;;1.70;99.90;;;;;;5109532;28;20101;-65
2020/12/10 04:08:58;;;;;;;50.75;21.35;;;1.70;99.90;;;;;;5110619;28;20112;-65
2020/12/10 04:11:25;;;;;;;51.75;22.45;;;1.60;99.90;;;;;;5108063;28;20047;-63
2020/12/10 04:13:53;;;;;;;49.83;23.13;;;1.60;99.90;;;;;;5109635;28;20101;-64
2020/12/10 04:16:19;;;;;;;52.05;23.10;;;1.70;99.90;;;;;;5099461;28;20043;-64
2020/12/10 04:18:46;;;;;;;49.20;22.85;;;1.60;99.90;;;;;;5098965;28;20052;-65
2020/12/10 04:21:13;;;;;;;50.85;22.25;;;1.60;99.90;;;;;;5113683;28;20058;-64
2020/12/10 04:23:39;;;;;;;58.53;23.17;;;1.70;99.90;;;;;;5114622;28;20048;-65
2020/12/10 04:26:06;;;;;;;56.55;23.30;;;1.60;99.90;;;;;;5112883;28;20043;-64
2020/12/10 04:28:33;;;;;;;60.58;24.05;;;1.60;99.90;;;;;;5114349;28;20055;-64
2020/12/10 04:30:59;;;;;;;60.17;23.85;;;1.60;99.90;;;;;;5113364;28;20040;-65
2020/12/10 04:33:26;;;;;;;64.40;24.23;;;1.60;99.90;;;;;;5113920;28;20040;-64
2020/12/10 04:35:52;;;;;;;67.75;24.88;;;1.60;99.90;;;;;;5113559;28;20064;-64
2020/12/10 04:38:19;;;;;;;66.88;24.63;;;1.60;99.90;;;;;;5099941;28;20047;-64
2020/12/10 04:40:46;;;;;;;72.65;24.77;;;1.50;99.90;;;;;;5110761;28;20039;-67
2020/12/10 04:43:13;;;;;;;61.47;23.85;;;1.60;99.90;;;;;;5112299;28;20413;-65
2020/12/10 04:45:40;;;;;;;68.40;25.48;;;1.50;99.90;;;;;;5113015;28;20061;-63
2020/12/10 04:48:07;;;;;;;70.40;25.75;;;1.60;99.90;;;;;;5112240;28;20059;-63
2020/12/10 04:50:37;;;;;;;66.82;24.45;;;1.60;99.90;;;;;;5095055;28;20039;-66
2020/12/10 04:53:04;;;;;;;63.75;22.98;;;1.60;99.90;;;;;;5112051;28;20473;-64
2020/12/10 04:55:31;;;;;;;71.68;26.13;;;1.60;99.90;;;;;;5100393;28;20043;-63
2020/12/10 04:57:59;;;;;;;67.28;24.17;;;1.70;99.90;;;;;;5111781;28;20056;-63
2020/12/10 05:00:26;;;;;;;70.50;23.80;;;1.70;99.90;;;;;;5099593;28;20046;-64
2020/12/10 05:02:53;;;;;;;63.45;24.05;;;1.80;99.90;;;;;;5112938;28;20051;-64
2020/12/10 05:05:29;;;;;;;71.05;24.02;;;1.80;99.90;;;;;;5113060;28;20054;-64
2020/12/10 05:08:01;;;;;;;75.78;25.92;;;1.80;99.90;;;;;;5113480;28;20104;-64
2020/12/10 05:10:41;;;;;;;72.53;25.05;;;1.70;99.90;;;;;;5111106;28;20062;-64
2020/12/10 05:13:10;;;;;;;68.60;26.05;;;1.70;99.90;;;;;;5112489;28;20071;-65
2020/12/10 05:15:37;;;;;;;68.43;25.67;;;1.70;99.90;;;;;;5112227;28;20645;-65
2020/12/10 05:18:06;;;;;;;78.55;26.67;;;1.70;99.90;;;;;;5112680;28;20697;-65
2020/12/10 05:20:40;;;;;;;72.95;27.25;;;1.70;99.90;;;;;;5111978;28;20046;-66
2020/12/10 05:23:08;;;;;;;82.65;28.92;;;1.70;99.90;;;;;;5112912;28;20052;-64
2020/12/10 05:25:54;;;;;;;82.80;28.80;;;1.60;99.90;;;;;;5092449;28;20044;-65
2020/12/10 05:28:22;;;;;;;88.80;28.88;;;1.60;99.90;;;;;;5112513;28;20071;-63
2020/12/10 05:31:04;;;;;;;101.88;31.42;;;1.50;99.90;;;;;;5112291;28;20044;-63
2020/12/10 05:33:32;;;;;;;91.35;29.08;;;1.50;99.90;;;;;;5113044;28;20559;-63
2020/12/10 05:36:06;;;;;;;84.32;27.80;;;1.50;99.90;;;;;;5111108;28;20074;-63
2020/12/10 05:38:32;;;;;;;88.80;29.70;;;1.50;99.90;;;;;;5111152;28;20043;-64
2020/12/10 05:41:16;;;;;;;80.03;27.05;;;1.60;99.90;;;;;;5109944;28;20048;-65
2020/12/10 05:43:43;;;;;;;86.95;29.27;;;1.60;99.90;;;;;;5110207;28;20454;-65
2020/12/10 05:46:18;;;;;;;84.15;28.60;;;1.60;99.90;;;;;;5092191;28;20055;-65
2020/12/10 05:48:46;;;;;;;78.95;28.52;;;1.70;99.90;;;;;;5111830;28;20131;-65
2020/12/10 05:51:20;;;;;;;90.30;28.92;;;1.70;99.90;;;;;;5110721;28;20456;-63
2020/12/10 05:53:49;;;;;;;86.47;29.02;;;1.70;99.90;;;;;;5111700;28;20078;-66
2020/12/10 05:56:17;;;;;;;81.80;27.23;;;1.70;99.90;;;;;;5111635;28;20043;-64
2020/12/10 05:58:49;;;;;;;82.00;27.70;;;1.70;99.90;;;;;;5107577;28;20054;-66
2020/12/10 06:01:32;;;;;;;73.80;24.83;;;1.80;99.90;;;;;;5107178;28;20043;-67
2020/12/10 06:04:00;;;;;;;90.07;28.63;;;1.70;99.90;;;;;;5102320;28;20494;-64
2020/12/10 06:06:30;;;;;;;89.65;28.10;;;1.70;99.90;;;;;;5107923;28;20048;-64
2020/12/10 06:09:03;;;;;;;98.65;30.40;;;1.70;99.90;;;;;;5111817;28;20374;-65
2020/12/10 06:11:30;;;;;;;91.97;29.15;;;1.70;99.90;;;;;;5103651;28;20048;-67
2020/12/10 06:14:04;;;;;;;99.85;28.20;;;1.70;99.90;;;;;;5111216;28;20051;-64
2020/12/10 06:16:32;;;;;;;119.47;30.02;;;1.70;99.90;;;;;;5111540;28;20048;-66
2020/12/10 06:19:13;;;;;;;85.30;28.35;;;1.60;99.90;;;;;;5110988;28;20039;-65
2020/12/10 06:21:45;;;;;;;89.35;28.20;;;1.60;99.90;;;;;;5110463;28;20040;-66
2020/12/10 06:24:26;;;;;;;96.85;30.23;;;1.60;99.90;;;;;;5111498;28;20533;-64
2020/12/10 06:26:57;;;;;;;92.82;29.98;;;1.60;99.90;;;;;;5109397;28;20044;-64
2020/12/10 06:29:25;;;;;;;98.43;28.45;;;1.60;99.90;;;;;;5097620;28;20370;-63
2020/12/10 06:32:05;;;;;;;94.00;28.13;;;1.60;99.90;;;;;;5111325;28;20452;-64
2020/12/10 06:34:42;;;;;;;89.32;29.35;;;1.60;99.90;;;;;;5109698;28;20101;-65
2020/12/10 06:37:30;;;;;;;92.53;29.70;;;1.60;99.90;;;;;;5110342;28;20047;-64
2020/12/10 06:40:05;;;;;;;105.93;30.20;;;1.60;99.90;;;;;;5111259;28;20043;-65
2020/12/10 06:42:45;;;;;;;105.85;30.02;;;1.70;99.90;;;;;;5110290;28;20413;-65
2020/12/10 06:45:40;;;;;;;106.28;32.17;;;1.60;99.90;;;;;;5100691;28;20482;-64
2020/12/10 06:48:09;;;;;;;96.78;28.30;;;1.70;99.90;;;;;;5110280;28;20417;-65
2020/12/10 06:50:38;;;;;;;87.95;27.63;;;1.70;99.90;;;;;;5110477;28;20450;-68
2020/12/10 06:53:10;;;;;;;106.50;30.98;;;1.70;99.90;;;;;;5110821;28;20426;-65
2020/12/10 06:55:54;;;;;;;99.93;29.33;;;1.70;99.90;;;;;;5111143;28;20043;-66
2020/12/10 06:58:22;;;;;;;90.97;28.23;;;1.70;99.90;;;;;;5109945;28;20054;-65
2020/12/10 07:00:52;;;;;;;146.00;29.95;;;1.70;99.90;;;;;;5109621;28;20048;-64
2020/12/10 07:03:23;;;;;;;85.75;27.58;;;1.70;99.90;;;;;;5110753;28;20054;-65
2020/12/10 07:05:50;;;;;;;92.88;29.98;;;1.60;99.90;;;;;;5109776;28;20055;-64
2020/12/10 07:08:18;;;;;;;115.70;30.38;;;1.70;99.90;;;;;;5109118;28;20417;-65
2020/12/10 07:10:46;;;;;;;121.95;29.55;;;1.60;99.90;;;;;;5109541;28;20482;-65
2020/12/10 07:13:15;;;;;;;117.25;30.17;;;1.60;99.90;;;;;;5110225;28;20382;-66
2020/12/10 07:15:47;;;;;;;138.65;30.63;;;1.60;99.90;;;;;;5109914;28;20051;-66
2020/12/10 07:18:14;;;;;;;96.55;29.15;;;1.60;99.90;;;;;;5094699;28;20063;-64
2020/12/10 07:20:40;;;;;;;88.50;28.55;;;1.50;99.90;;;;;;5109823;28;20105;-65
2020/12/10 07:23:07;;;;;;;103.97;29.02;;;1.50;99.90;;;;;;5110546;28;20043;-65
2020/12/10 07:25:33;;;;;;;104.07;30.10;;;1.60;99.90;;;;;;5108373;28;20063;-65
2020/12/10 07:28:00;;;;;;;107.40;29.55;;;1.60;99.90;;;;;;5104398;28;20552;-65
2020/12/10 07:30:30;;;;;;;94.43;28.63;;;1.60;99.90;;;;;;5110035;28;20044;-64
2020/12/10 07:32:59;;;;;;;94.28;29.63;;;1.60;99.90;;;;;;5091840;28;20039;-65
2020/12/10 07:35:34;;;;;;;162.00;31.05;;;1.60;99.90;;;;;;5109799;28;20052;-65
2020/12/10 07:38:08;;;;;;;87.10;26.25;;;1.60;99.90;;;;;;5109623;28;20510;-65
2020/12/10 07:40:35;;;;;;;90.57;26.17;;;1.60;99.90;;;;;;5110225;28;20405;-66
2020/12/10 07:43:06;;;;;;;97.60;27.60;;;1.60;99.90;;;;;;5109037;28;20046;-65
2020/12/10 07:45:33;;;;;;;89.53;27.50;;;1.70;99.90;;;;;;5110460;28;20054;-66
2020/12/10 07:48:02;;;;;;;99.45;28.83;;;1.70;99.90;;;;;;5110001;28;20082;-64
2020/12/10 07:50:31;;;;;;;89.40;27.02;;;1.70;99.90;;;;;;5108148;28;20050;-66
2020/12/10 07:52:58;;;;;;;109.22;29.50;;;1.70;99.90;;;;;;5108859;28;20047;-65
2020/12/10 07:55:27;;;;;;;99.65;30.00;;;1.70;99.90;;;;;;5111754;28;20044;-66
2020/12/10 07:58:08;;;;;;;96.18;29.52;;;1.70;99.90;;;;;;5112180;28;20146;-66
2020/12/10 08:00:35;;;;;;;91.70;28.13;;;1.70;99.90;;;;;;5113482;28;20039;-68
2020/12/10 08:03:25;;;;;;;140.32;30.77;;;1.80;99.90;;;;;;5113057;28;20122;-66
2020/12/10 08:06:05;;;;;;;90.57;27.17;;;1.80;99.90;;;;;;5095455;28;20043;-65
2020/12/10 08:08:38;;;;;;;85.93;24.98;;;1.80;99.90;;;;;;5113387;28;20044;-64
2020/12/10 08:11:06;;;;;;;97.15;27.65;;;1.80;99.90;;;;;;5111218;28;20062;-67
2020/12/10 08:13:33;;;;;;;106.13;28.90;;;1.80;99.90;;;;;;5112968;28;20139;-66
2020/12/10 08:16:07;;;;;;;96.82;27.52;;;1.80;99.90;;;;;;5113136;28;20563;-66
2020/12/10 08:18:34;;;;;;;97.32;28.02;;;1.80;99.90;;;;;;5113169;28;20035;-65
2020/12/10 08:21:05;;;;;;;101.85;27.98;;;1.80;99.90;;;;;;5112718;28;20391;-64
2020/12/10 08:23:43;;;;;;;109.43;28.48;;;1.80;99.90;;;;;;5111986;28;20047;-68
2020/12/10 08:26:14;;;;;;;139.63;27.48;;;2.00;99.90;;;;;;5111739;28;20142;-65
2020/12/10 08:28:57;;;;;;;100.82;29.02;;;1.90;99.90;;;;;;5112780;28;20063;-66
2020/12/10 08:31:25;;;;;;;86.72;25.67;;;1.90;99.90;;;;;;5092766;28;20047;-65
2020/12/10 08:33:52;;;;;;;88.88;27.42;;;2.00;99.90;;;;;;5112759;28;20126;-66
2020/12/10 08:36:29;;;;;;;85.55;26.88;;;2.00;99.90;;;;;;5110755;28;20051;-66
2020/12/10 08:38:59;;;;;;;80.68;23.60;;;2.00;99.90;;;;;;5112761;27;20507;-69
2020/12/10 08:41:30;;;;;;;73.40;22.98;;;2.00;99.90;;;;;;5112206;28;20473;-67
2020/12/10 08:44:00;;;;;;;87.03;26.63;;;2.00;99.90;;;;;;5113163;28;20052;-65
2020/12/10 08:46:28;;;;;;;71.85;23.88;;;2.00;99.90;;;;;;5112188;28;20051;-65
2020/12/10 08:48:57;;;;;;;85.20;26.92;;;2.00;99.90;;;;;;5112950;28;20078;-65
2020/12/10 08:51:40;;;;;;;83.93;27.38;;;2.10;99.90;;;;;;5110822;28;20044;-66
2020/12/10 08:54:06;;;;;;;105.95;28.20;;;2.10;99.90;;;;;;5112183;28;20060;-66
2020/12/10 08:56:37;;;;;;;80.75;26.40;;;2.10;99.90;;;;;;5111389;28;20501;-67
2020/12/10 08:59:05;;;;;;;82.15;26.73;;;2.20;99.90;;;;;;5112582;28;20052;-65
2020/12/10 09:01:33;;;;;;;95.45;27.98;;;2.20;99.90;;;;;;5111479;28;20069;-65
2020/12/10 09:04:00;;;;;;;84.43;26.65;;;2.10;99.90;;;;;;5111023;28;20054;-65
2020/12/10 09:06:34;;;;;;;82.80;26.60;;;2.10;99.90;;;;;;5111375;28;20055;-65
2020/12/10 09:09:04;;;;;;;138.77;28.67;;;2.00;99.90;;;;;;5101678;28;20051;-65
2020/12/10 09:11:31;;;;;;;89.18;27.02;;;2.00;99.90;;;;;;5110212;28;20561;-66
2020/12/10 09:13:59;;;;;;;89.95;26.90;;;2.00;99.90;;;;;;5112261;28;20052;-64
2020/12/10 09:16:27;;;;;;;129.38;28.75;;;2.00;99.90;;;;;;5105800;28;20039;-65
2020/12/10 09:18:54;;;;;;;94.53;27.02;;;2.00;99.90;;;;;;5109787;28;20131;-65
2020/12/10 09:21:21;;;;;;;89.32;27.70;;;2.00;99.90;;;;;;5110492;28;20058;-67
2020/12/10 09:23:48;;;;;;;83.43;26.55;;;2.00;99.90;;;;;;5093317;28;20066;-66
2020/12/10 09:26:16;;;;;;;91.10;27.33;;;2.00;99.90;;;;;;5112067;28;20083;-65
2020/12/10 09:28:42;;;;;;;92.25;30.10;;;2.00;99.90;;;;;;5106206;28;20525;-65
2020/12/10 09:31:09;;;;;;;98.18;31.30;;;2.00;99.90;;;;;;5111461;28;20052;-65
2020/12/10 09:33:35;;;;;;;96.18;27.05;;;2.00;99.90;;;;;;5110374;28;20043;-66
2020/12/10 09:36:02;;;;;;;82.53;27.55;;;2.00;99.90;;;;;;5110080;28;20055;-65
2020/12/10 09:38:29;;;;;;;160.00;30.30;;;1.90;99.90;;;;;;5110139;28;20046;-66
2020/12/10 09:40:55;;;;;;;93.63;27.35;;;1.90;99.90;;;;;;5111037;28;20043;-65
2020/12/10 09:43:22;;;;;;;90.30;26.27;;;1.90;99.90;;;;;;5111377;28;20058;-64
2020/12/10 09:45:57;;;;;;;88.13;25.95;;;2.00;99.90;;;;;;5110093;28;20047;-65
2020/12/10 09:48:24;;;;;;;116.68;30.05;;;2.00;99.90;;;;;;5111150;28;20044;-65
2020/12/10 09:50:50;;;;;;;92.10;29.77;;;2.00;99.90;;;;;;5110970;28;20477;-64
2020/12/10 09:53:32;;;;;;;121.15;27.98;;;2.00;99.90;;;;;;5092429;28;20051;-64
2020/12/10 09:56:22;;;;;;;;;;;2.00;99.90;;;;;;5111517;28;20043;-63
2020/12/10 09:58:53;;;;;;;95.72;28.00;;;2.00;99.90;;;;;;5098402;28;20007;-66
2020/12/10 10:01:19;;;;;;;228.15;30.80;;;2.10;99.90;;;;;;5111145;28;20052;-66
2020/12/10 10:03:46;;;;;;;110.53;29.75;;;2.10;99.90;;;;;;5112466;28;20053;-65
2020/12/10 10:06:13;;;;;;;98.88;28.98;;;2.10;99.90;;;;;;5111359;28;20063;-64
2020/12/10 10:08:39;;;;;;;137.93;30.67;;;2.00;99.90;;;;;;5092224;28;20052;-64
2020/12/10 10:11:06;;;;;;;87.60;26.88;;;2.10;99.90;;;;;;5108846;28;20079;-66
2020/12/10 10:13:32;;;;;;;102.88;27.58;;;2.10;99.90;;;;;;5109841;28;20055;-66
2020/12/10 10:16:01;;;;;;;101.70;27.83;;;2.10;99.90;;;;;;5109655;28;20051;-65
2020/12/10 10:18:28;;;;;;;93.80;26.90;;;2.10;99.90;;;;;;5110942;28;20116;-65
2020/12/10 10:20:55;;;;;;;97.82;26.77;;;2.10;99.90;;;;;;5106249;28;20150;-65
2020/12/10 10:23:23;;;;;;;97.30;28.42;;;2.10;99.90;;;;;;5111055;28;20422;-65
2020/12/10 10:25:50;;;;;;;107.95;29.40;;;2.10;99.90;;;;;;5110227;28;20059;-64
2020/12/10 10:28:16;;;;;;;86.18;27.20;;;2.10;99.90;;;;;;5092946;28;20051;-65
2020/12/10 10:30:43;;;;;;;86.07;25.90;;;2.20;99.90;;;;;;5108789;28;20055;-63
2020/12/10 10:33:09;;;;;;;89.22;26.88;;;2.20;99.90;;;;;;5109940;28;20073;-64
2020/12/10 10:35:36;;;;;;;84.97;25.55;;;2.20;99.90;;;;;;5110529;28;20063;-66
2020/12/10 10:38:03;;;;;;;74.40;23.48;;;2.30;99.90;;;;;;5109255;28;20040;-66
2020/12/10 10:40:31;;;;;;;69.00;24.00;;;2.40;99.90;;;;;;5109136;28;20047;-65
2020/12/10 10:42:58;;;;;;;83.40;25.80;;;2.50;99.90;;;;;;5109094;28;20143;-65
2020/12/10 10:45:24;;;;;;;75.63;25.08;;;2.50;99.90;;;;;;5109974;28;20481;-64
2020/12/10 10:47:52;;;;;;;71.63;24.73;;;2.60;99.90;;;;;;5109033;28;20074;-65
2020/12/10 10:50:18;;;;;;;74.40;24.02;;;2.60;99.90;;;;;;5110181;28;20070;-65
2020/12/10 10:52:45;;;;;;;72.40;24.67;;;2.60;99.90;;;;;;5108430;28;20058;-66
2020/12/10 10:55:11;;;;;;;67.45;23.17;;;2.70;99.90;;;;;;5109073;28;20039;-64
2020/12/10 10:57:38;;;;;;;58.53;20.48;;;2.60;99.90;;;;;;5109147;28;20039;-63
2020/12/10 11:00:04;;;;;;;55.95;20.63;;;2.60;99.90;;;;;;5109115;27;20152;-66
2020/12/10 11:02:31;;;;;;;60.55;21.77;;;2.70;99.90;;;;;;5108262;28;20035;-63
2020/12/10 11:04:57;;;;;;;58.90;22.70;;;2.70;99.90;;;;;;5110241;28;20048;-64
2020/12/10 11:07:24;;;;;;;62.20;22.13;;;2.70;99.90;;;;;;5108790;28;20047;-66
2020/12/10 11:09:50;;;;;;;72.18;24.83;;;2.70;99.90;;;;;;5109057;28;20055;-65
2020/12/10 11:12:17;;;;;;;63.08;21.55;;;2.80;99.90;;;;;;5108119;28;20048;-65
2020/12/10 11:14:44;;;;;;;72.35;24.70;;;2.70;99.90;;;;;;5110205;28;20439;-65
2020/12/10 11:17:11;;;;;;;69.97;24.17;;;2.70;99.90;;;;;;5103196;28;20517;-66
2020/12/10 11:19:37;;;;;;;70.15;24.08;;;2.70;99.90;;;;;;5109579;28;20130;-65
2020/12/10 11:22:04;;;;;;;70.90;22.80;;;2.70;99.90;;;;;;5108276;28;20638;-66
2020/12/10 11:24:30;;;;;;;70.35;24.02;;;2.70;99.90;;;;;;5108973;28;20043;-65
2020/12/10 11:26:59;;;;;;;74.25;22.73;;;2.70;99.90;;;;;;5090100;28;20040;-64
2020/12/10 11:29:25;;;;;;;76.30;24.15;;;2.80;99.90;;;;;;5107911;28;20504;-64
2020/12/10 11:31:53;;;;;;;69.85;22.85;;;2.80;99.90;;;;;;5089977;28;20046;-64
2020/12/10 11:34:20;;;;;;;64.50;22.45;;;2.80;99.90;;;;;;5108422;28;20468;-66
2020/12/10 11:36:47;;;;;;;70.63;22.67;;;2.80;99.90;;;;;;5106403;28;20409;-64
2020/12/10 11:39:17;;;;;;;74.53;23.48;;;2.80;99.90;;;;;;5108623;28;20058;-64
2020/12/10 11:41:43;;;;;;;72.82;24.48;;;2.70;99.90;;;;;;5107214;28;20063;-65
2020/12/10 11:44:12;;;;;;;79.60;25.67;;;2.80;99.90;;;;;;5108998;28;20054;-65
2020/12/10 11:46:39;;;;;;;77.88;24.90;;;2.80;99.90;;;;;;5106768;28;20044;-66
2020/12/10 11:49:09;;;;;;;80.28;26.75;;;2.80;99.90;;;;;;5110309;28;20214;-64
2020/12/10 11:51:36;;;;;;;78.50;25.83;;;2.80;99.90;;;;;;5108996;28;20386;-65
2020/12/10 11:54:03;;;;;;;86.28;30.33;;;2.60;99.90;;;;;;5110114;28;20079;-65
2020/12/10 11:56:32;;;;;;;72.70;23.92;;;2.60;99.90;;;;;;5087166;28;20070;-66
2020/12/10 11:59:00;;;;;;;69.15;23.23;;;2.60;99.90;;;;;;5105113;28;20047;-64
2020/12/10 12:01:26;;;;;;;72.30;22.70;;;2.50;99.90;;;;;;5108243;28;20047;-66
2020/12/10 12:03:53;;;;;;;67.28;23.70;;;2.50;99.90;;;;;;5109060;28;20044;-65
2020/12/10 12:06:22;;;;;;;62.30;21.45;;;2.60;99.90;;;;;;5108127;28;20043;-65
2020/12/10 12:08:50;;;;;;;61.88;20.15;;;2.60;99.90;;;;;;5108265;28;20048;-63
2020/12/10 12:11:24;;;;;;;60.00;21.33;;;2.60;99.90;;;;;;5108786;28;20043;-65
2020/12/10 12:13:50;;;;;;;68.10;22.92;;;2.70;99.90;;;;;;5108984;28;20058;-65
2020/12/10 12:16:18;;;;;;;67.97;23.33;;;2.70;99.90;;;;;;5109029;28;20047;-65
2020/12/10 12:18:45;;;;;;;69.60;23.70;;;2.70;99.90;;;;;;5109161;28;20042;-63
2020/12/10 12:21:11;;;;;;;74.15;24.08;;;2.70;99.90;;;;;;5108460;28;20055;-65
2020/12/10 12:23:38;;;;;;;71.63;24.88;;;2.70;99.90;;;;;;5107449;28;20051;-65
2020/12/10 12:26:04;;;;;;;71.20;24.98;;;2.60;99.90;;;;;;5107345;28;20040;-66
2020/12/10 12:28:31;;;;;;;76.65;26.20;;;2.60;99.90;;;;;;5107677;28;20052;-66
2020/12/10 12:30:57;;;;;;;76.63;24.58;;;2.70;99.90;;;;;;5107098;28;20494;-65
2020/12/10 12:33:24;;;;;;;84.88;27.40;;;2.70;99.90;;;;;;5108653;28;20086;-66
2020/12/10 12:35:51;;;;;;;82.22;26.90;;;2.70;99.90;;;;;;5108120;28;20047;-66
2020/12/10 12:38:17;;;;;;;80.63;27.80;;;2.70;99.90;;;;;;5108107;28;20046;-66
2020/12/10 12:40:45;;;;;;;77.93;25.75;;;2.60;99.90;;;;;;5112284;28;20074;-67
2020/12/10 12:43:12;;;;;;;70.38;22.95;;;2.60;99.90;;;;;;5112742;28;20130;-67